sensor_id;sensor_type;location;lat;lon;timestamp;P1;durP1;ratioP1;P2;durP2;ratioP2
6638;SDS011;3355;52.882;8.430;2023-03-01T00:01:00;20.23;;;13.30;;
6638;SDS011;3355;52.882;8.430;2023-03-01T00:03:27;17.43;;;13.37;;
6638;SDS011;3355;52.882;8.430;2023-03-01T00:05:54;19.17;;;13.63;;
6638;SDS011;3355;52.882;8.430;2023-03-01T00:08:22;22.93;;;14.20;;
6638;SDS011;3355;52.882;8.430;2023-03-01T00:10:50;19.53;;;12.53;;
6638;SDS011;3355;52.882;8.430;2023-03-01T00:13:26;23.57;;;13.97;;
6638;SDS011;3355;52.882;8.430;2023-03-01T00:15:53;24.17;;;15.37;;
6638;SDS011;3355;52.882;8.430;2023-03-01T00:18:19;19.63;;;13.60;;
6638;SDS011;3355;52.882;8.430;2023-03-01T00:20:49;21.60;;;14.40;;
6638;SDS011;3355;52.882;8.430;2023-03-01T00:23:16;19.80;;;13.77;;
6638;SDS011;3355;52.882;8.430;2023-03-01T00:25:43;23.67;;;15.50;;
6638;SDS011;3355;52.882;8.430;2023-03-01T00:28:12;22.47;;;14.30;;
6638;SDS011;3355;52.882;8.430;2023-03-01T00:30:38;26.10;;;14.03;;
6638;SDS011;3355;52.882;8.430;2023-03-01T00:33:05;20.03;;;13.57;;
6638;SDS011;3355;52.882;8.430;2023-03-01T00:35:32;19.70;;;13.70;;
6638;SDS011;3355;52.882;8.430;2023-03-01T00:37:59;20.03;;;13.83;;
6638;SDS011;3355;52.882;8.430;2023-03-01T00:40:27;22.10;;;14.43;;
6638;SDS011;3355;52.882;8.430;2023-03-01T00:42:54;23.43;;;14.43;;
6638;SDS011;3355;52.882;8.430;2023-03-01T00:45:22;25.37;;;13.77;;
6638;SDS011;3355;52.882;8.430;2023-03-01T00:47:50;19.97;;;13.50;;
6638;SDS011;3355;52.882;8.430;2023-03-01T00:50:17;21.93;;;15.27;;
6638;SDS011;3355;52.882;8.430;2023-03-01T00:52:44;23.13;;;15.73;;
6638;SDS011;3355;52.882;8.430;2023-03-01T00:55:11;21.53;;;13.23;;
6638;SDS011;3355;52.882;8.430;2023-03-01T00:57:38;26.10;;;14.47;;
6638;SDS011;3355;52.882;8.430;2023-03-01T01:00:05;24.37;;;14.03;;
6638;SDS011;3355;52.882;8.430;2023-03-01T01:02:36;19.50;;;12.77;;
6638;SDS011;3355;52.882;8.430;2023-03-01T01:05:04;18.60;;;12.90;;
6638;SDS011;3355;52.882;8.430;2023-03-01T01:07:32;23.50;;;13.27;;
6638;SDS011;3355;52.882;8.430;2023-03-01T01:09:59;17.33;;;13.30;;
6638;SDS011;3355;52.882;8.430;2023-03-01T01:12:26;17.70;;;11.67;;
6638;SDS011;3355;52.882;8.430;2023-03-01T01:14:54;18.27;;;10.43;;
6638;SDS011;3355;52.882;8.430;2023-03-01T01:17:21;18.63;;;11.13;;
6638;SDS011;3355;52.882;8.430;2023-03-01T01:19:49;14.87;;;10.80;;
6638;SDS011;3355;52.882;8.430;2023-03-01T01:22:16;16.20;;;10.07;;
6638;SDS011;3355;52.882;8.430;2023-03-01T01:24:44;15.70;;;10.17;;
6638;SDS011;3355;52.882;8.430;2023-03-01T01:27:11;16.13;;;9.20;;
6638;SDS011;3355;52.882;8.430;2023-03-01T01:29:38;14.50;;;9.43;;
6638;SDS011;3355;52.882;8.430;2023-03-01T01:32:07;14.90;;;9.60;;
6638;SDS011;3355;52.882;8.430;2023-03-01T01:34:33;14.70;;;9.47;;
6638;SDS011;3355;52.882;8.430;2023-03-01T01:37:02;12.67;;;9.17;;
6638;SDS011;3355;52.882;8.430;2023-03-01T01:39:32;14.63;;;9.00;;
6638;SDS011;3355;52.882;8.430;2023-03-01T01:42:02;13.70;;;8.60;;
6638;SDS011;3355;52.882;8.430;2023-03-01T01:44:29;17.57;;;9.83;;
6638;SDS011;3355;52.882;8.430;2023-03-01T01:46:57;13.60;;;9.00;;
6638;SDS011;3355;52.882;8.430;2023-03-01T01:49:27;12.27;;;8.60;;
6638;SDS011;3355;52.882;8.430;2023-03-01T01:52:00;11.87;;;9.40;;
6638;SDS011;3355;52.882;8.430;2023-03-01T01:54:31;13.60;;;9.03;;
6638;SDS011;3355;52.882;8.430;2023-03-01T01:57:06;13.93;;;8.43;;
6638;SDS011;3355;52.882;8.430;2023-03-01T01:59:33;14.50;;;8.73;;
6638;SDS011;3355;52.882;8.430;2023-03-01T02:02:02;13.13;;;9.47;;
6638;SDS011;3355;52.882;8.430;2023-03-01T02:04:34;12.43;;;8.57;;
6638;SDS011;3355;52.882;8.430;2023-03-01T02:07:01;15.63;;;8.23;;
6638;SDS011;3355;52.882;8.430;2023-03-01T02:09:33;13.40;;;8.23;;
6638;SDS011;3355;52.882;8.430;2023-03-01T02:12:00;11.90;;;7.93;;
6638;SDS011;3355;52.882;8.430;2023-03-01T02:14:27;14.07;;;9.00;;
6638;SDS011;3355;52.882;8.430;2023-03-01T02:16:55;10.67;;;8.27;;
6638;SDS011;3355;52.882;8.430;2023-03-01T02:19:26;12.57;;;7.87;;
6638;SDS011;3355;52.882;8.430;2023-03-01T02:22:03;10.47;;;8.20;;
6638;SDS011;3355;52.882;8.430;2023-03-01T02:24:38;15.80;;;8.40;;
6638;SDS011;3355;52.882;8.430;2023-03-01T02:27:11;11.87;;;8.20;;
6638;SDS011;3355;52.882;8.430;2023-03-01T02:29:39;15.73;;;8.30;;
6638;SDS011;3355;52.882;8.430;2023-03-01T02:32:09;12.07;;;7.60;;
6638;SDS011;3355;52.882;8.430;2023-03-01T02:34:38;11.43;;;7.60;;
6638;SDS011;3355;52.882;8.430;2023-03-01T02:37:06;11.13;;;7.63;;
6638;SDS011;3355;52.882;8.430;2023-03-01T02:39:37;9.17;;;6.93;;
6638;SDS011;3355;52.882;8.430;2023-03-01T02:42:06;8.60;;;7.07;;
6638;SDS011;3355;52.882;8.430;2023-03-01T02:44:34;9.43;;;6.90;;
6638;SDS011;3355;52.882;8.430;2023-03-01T02:47:02;10.03;;;7.80;;
6638;SDS011;3355;52.882;8.430;2023-03-01T02:49:31;12.87;;;6.77;;
6638;SDS011;3355;52.882;8.430;2023-03-01T02:52:17;10.67;;;7.07;;
6638;SDS011;3355;52.882;8.430;2023-03-01T02:54:55;11.07;;;5.83;;
6638;SDS011;3355;52.882;8.430;2023-03-01T02:57:24;10.90;;;7.10;;
6638;SDS011;3355;52.882;8.430;2023-03-01T02:59:53;10.70;;;7.80;;
6638;SDS011;3355;52.882;8.430;2023-03-01T03:02:23;9.23;;;5.63;;
6638;SDS011;3355;52.882;8.430;2023-03-01T03:05:01;11.30;;;6.90;;
6638;SDS011;3355;52.882;8.430;2023-03-01T03:07:31;10.50;;;6.53;;
6638;SDS011;3355;52.882;8.430;2023-03-01T03:09:58;8.83;;;6.10;;
6638;SDS011;3355;52.882;8.430;2023-03-01T03:12:25;9.73;;;7.30;;
6638;SDS011;3355;52.882;8.430;2023-03-01T03:14:52;10.23;;;6.57;;
6638;SDS011;3355;52.882;8.430;2023-03-01T03:17:19;8.23;;;6.17;;
6638;SDS011;3355;52.882;8.430;2023-03-01T03:19:47;14.13;;;7.03;;
6638;SDS011;3355;52.882;8.430;2023-03-01T03:22:14;11.50;;;7.20;;
6638;SDS011;3355;52.882;8.430;2023-03-01T03:24:41;10.70;;;6.57;;
6638;SDS011;3355;52.882;8.430;2023-03-01T03:27:08;8.17;;;6.50;;
6638;SDS011;3355;52.882;8.430;2023-03-01T03:29:34;9.93;;;6.20;;
6638;SDS011;3355;52.882;8.430;2023-03-01T03:32:01;9.80;;;6.10;;
6638;SDS011;3355;52.882;8.430;2023-03-01T03:34:29;10.53;;;6.70;;
6638;SDS011;3355;52.882;8.430;2023-03-01T03:36:57;11.63;;;6.60;;
6638;SDS011;3355;52.882;8.430;2023-03-01T03:39:24;15.30;;;6.90;;
6638;SDS011;3355;52.882;8.430;2023-03-01T03:41:52;8.90;;;6.60;;
6638;SDS011;3355;52.882;8.430;2023-03-01T03:44:18;8.10;;;6.33;;
6638;SDS011;3355;52.882;8.430;2023-03-01T03:46:45;10.63;;;6.17;;
6638;SDS011;3355;52.882;8.430;2023-03-01T03:49:12;8.90;;;5.80;;
6638;SDS011;3355;52.882;8.430;2023-03-01T03:51:39;12.27;;;7.77;;
6638;SDS011;3355;52.882;8.430;2023-03-01T03:54:07;10.00;;;6.13;;
6638;SDS011;3355;52.882;8.430;2023-03-01T03:56:35;8.50;;;5.20;;
6638;SDS011;3355;52.882;8.430;2023-03-01T03:59:02;11.40;;;6.20;;
6638;SDS011;3355;52.882;8.430;2023-03-01T04:01:30;11.53;;;6.50;;
6638;SDS011;3355;52.882;8.430;2023-03-01T04:03:57;8.60;;;5.90;;
6638;SDS011;3355;52.882;8.430;2023-03-01T04:06:29;9.03;;;6.00;;
6638;SDS011;3355;52.882;8.430;2023-03-01T04:08:56;8.70;;;6.00;;
6638;SDS011;3355;52.882;8.430;2023-03-01T04:11:27;9.33;;;5.40;;
6638;SDS011;3355;52.882;8.430;2023-03-01T04:13:55;9.37;;;6.20;;
6638;SDS011;3355;52.882;8.430;2023-03-01T04:16:22;10.07;;;6.63;;
6638;SDS011;3355;52.882;8.430;2023-03-01T04:18:49;10.00;;;6.37;;
6638;SDS011;3355;52.882;8.430;2023-03-01T04:21:17;9.40;;;5.97;;
6638;SDS011;3355;52.882;8.430;2023-03-01T04:23:45;9.80;;;6.30;;
6638;SDS011;3355;52.882;8.430;2023-03-01T04:26:13;13.37;;;6.60;;
6638;SDS011;3355;52.882;8.430;2023-03-01T04:28:42;8.87;;;5.40;;
6638;SDS011;3355;52.882;8.430;2023-03-01T04:31:11;14.03;;;7.00;;
6638;SDS011;3355;52.882;8.430;2023-03-01T04:33:41;9.37;;;6.50;;
6638;SDS011;3355;52.882;8.430;2023-03-01T04:36:11;9.97;;;6.37;;
6638;SDS011;3355;52.882;8.430;2023-03-01T04:38:39;9.53;;;6.63;;
6638;SDS011;3355;52.882;8.430;2023-03-01T04:41:08;9.90;;;6.93;;
6638;SDS011;3355;52.882;8.430;2023-03-01T04:43:39;8.73;;;6.50;;
6638;SDS011;3355;52.882;8.430;2023-03-01T04:46:08;9.90;;;6.20;;
6638;SDS011;3355;52.882;8.430;2023-03-01T04:48:35;8.07;;;5.70;;
6638;SDS011;3355;52.882;8.430;2023-03-01T04:51:03;8.93;;;6.17;;
6638;SDS011;3355;52.882;8.430;2023-03-01T04:53:32;7.83;;;5.90;;
6638;SDS011;3355;52.882;8.430;2023-03-01T04:56:01;8.23;;;5.80;;
6638;SDS011;3355;52.882;8.430;2023-03-01T04:58:29;7.57;;;5.10;;
6638;SDS011;3355;52.882;8.430;2023-03-01T05:00:55;14.73;;;8.17;;
6638;SDS011;3355;52.882;8.430;2023-03-01T05:03:23;8.90;;;6.73;;
6638;SDS011;3355;52.882;8.430;2023-03-01T05:05:51;11.33;;;7.70;;
6638;SDS011;3355;52.882;8.430;2023-03-01T05:08:22;11.53;;;7.20;;
6638;SDS011;3355;52.882;8.430;2023-03-01T05:10:50;9.60;;;7.03;;
6638;SDS011;3355;52.882;8.430;2023-03-01T05:13:17;9.23;;;6.80;;
6638;SDS011;3355;52.882;8.430;2023-03-01T05:15:47;11.03;;;7.33;;
6638;SDS011;3355;52.882;8.430;2023-03-01T05:18:14;11.63;;;6.90;;
6638;SDS011;3355;52.882;8.430;2023-03-01T05:20:42;11.13;;;7.10;;
6638;SDS011;3355;52.882;8.430;2023-03-01T05:23:10;10.70;;;6.90;;
6638;SDS011;3355;52.882;8.430;2023-03-01T05:25:37;9.70;;;6.97;;
6638;SDS011;3355;52.882;8.430;2023-03-01T05:28:05;9.07;;;6.23;;
6638;SDS011;3355;52.882;8.430;2023-03-01T05:30:33;9.30;;;6.67;;
6638;SDS011;3355;52.882;8.430;2023-03-01T05:33:00;10.40;;;6.33;;
6638;SDS011;3355;52.882;8.430;2023-03-01T05:35:27;7.33;;;5.80;;
6638;SDS011;3355;52.882;8.430;2023-03-01T05:37:59;7.80;;;5.60;;
6638;SDS011;3355;52.882;8.430;2023-03-01T05:40:26;7.30;;;5.10;;
6638;SDS011;3355;52.882;8.430;2023-03-01T05:42:54;7.13;;;5.30;;
6638;SDS011;3355;52.882;8.430;2023-03-01T05:45:22;7.73;;;6.10;;
6638;SDS011;3355;52.882;8.430;2023-03-01T05:47:50;9.00;;;6.77;;
6638;SDS011;3355;52.882;8.430;2023-03-01T05:50:18;10.03;;;5.80;;
6638;SDS011;3355;52.882;8.430;2023-03-01T05:52:46;9.07;;;5.83;;
6638;SDS011;3355;52.882;8.430;2023-03-01T05:55:15;11.00;;;6.17;;
6638;SDS011;3355;52.882;8.430;2023-03-01T05:57:42;8.60;;;6.60;;
6638;SDS011;3355;52.882;8.430;2023-03-01T06:00:09;8.30;;;6.40;;
6638;SDS011;3355;52.882;8.430;2023-03-01T06:02:40;9.97;;;7.47;;
6638;SDS011;3355;52.882;8.430;2023-03-01T06:05:10;12.60;;;8.10;;
6638;SDS011;3355;52.882;8.430;2023-03-01T06:07:39;10.50;;;8.07;;
6638;SDS011;3355;52.882;8.430;2023-03-01T06:10:06;13.00;;;9.37;;
6638;SDS011;3355;52.882;8.430;2023-03-01T06:12:39;12.10;;;9.37;;
6638;SDS011;3355;52.882;8.430;2023-03-01T06:15:07;10.03;;;8.33;;
6638;SDS011;3355;52.882;8.430;2023-03-01T06:17:36;12.73;;;9.70;;
6638;SDS011;3355;52.882;8.430;2023-03-01T06:20:04;12.47;;;10.33;;
6638;SDS011;3355;52.882;8.430;2023-03-01T06:22:32;10.63;;;9.40;;
6638;SDS011;3355;52.882;8.430;2023-03-01T06:24:58;18.00;;;10.00;;
6638;SDS011;3355;52.882;8.430;2023-03-01T06:27:25;14.47;;;10.57;;
6638;SDS011;3355;52.882;8.430;2023-03-01T06:29:53;9.40;;;8.40;;
6638;SDS011;3355;52.882;8.430;2023-03-01T06:32:20;10.83;;;9.03;;
6638;SDS011;3355;52.882;8.430;2023-03-01T06:34:47;11.80;;;9.33;;
6638;SDS011;3355;52.882;8.430;2023-03-01T06:37:13;10.97;;;8.03;;
6638;SDS011;3355;52.882;8.430;2023-03-01T06:39:40;10.07;;;6.87;;
6638;SDS011;3355;52.882;8.430;2023-03-01T06:42:07;7.30;;;5.83;;
6638;SDS011;3355;52.882;8.430;2023-03-01T06:44:35;9.00;;;6.23;;
6638;SDS011;3355;52.882;8.430;2023-03-01T06:47:03;8.47;;;5.80;;
6638;SDS011;3355;52.882;8.430;2023-03-01T06:49:29;8.97;;;6.03;;
6638;SDS011;3355;52.882;8.430;2023-03-01T06:51:56;7.30;;;5.13;;
6638;SDS011;3355;52.882;8.430;2023-03-01T06:54:23;6.87;;;4.70;;
6638;SDS011;3355;52.882;8.430;2023-03-01T06:56:50;7.63;;;5.43;;
6638;SDS011;3355;52.882;8.430;2023-03-01T06:59:17;6.23;;;5.20;;
6638;SDS011;3355;52.882;8.430;2023-03-01T07:01:43;6.30;;;4.70;;
6638;SDS011;3355;52.882;8.430;2023-03-01T07:04:12;8.00;;;4.70;;
6638;SDS011;3355;52.882;8.430;2023-03-01T07:06:39;6.37;;;4.90;;
6638;SDS011;3355;52.882;8.430;2023-03-01T07:09:06;8.27;;;5.60;;
6638;SDS011;3355;52.882;8.430;2023-03-01T07:11:32;11.10;;;5.40;;
6638;SDS011;3355;52.882;8.430;2023-03-01T07:13:59;7.17;;;5.63;;
6638;SDS011;3355;52.882;8.430;2023-03-01T07:16:26;7.23;;;5.27;;
6638;SDS011;3355;52.882;8.430;2023-03-01T07:18:53;8.10;;;5.87;;
6638;SDS011;3355;52.882;8.430;2023-03-01T07:21:21;8.10;;;5.90;;
6638;SDS011;3355;52.882;8.430;2023-03-01T07:23:47;8.30;;;5.97;;
6638;SDS011;3355;52.882;8.430;2023-03-01T07:26:15;7.60;;;5.37;;
6638;SDS011;3355;52.882;8.430;2023-03-01T07:28:42;7.60;;;4.97;;
6638;SDS011;3355;52.882;8.430;2023-03-01T07:31:08;10.53;;;7.67;;
6638;SDS011;3355;52.882;8.430;2023-03-01T07:33:35;11.53;;;8.40;;
6638;SDS011;3355;52.882;8.430;2023-03-01T07:36:02;7.80;;;6.97;;
6638;SDS011;3355;52.882;8.430;2023-03-01T07:38:31;10.17;;;7.30;;
6638;SDS011;3355;52.882;8.430;2023-03-01T07:40:58;15.10;;;7.60;;
6638;SDS011;3355;52.882;8.430;2023-03-01T07:43:26;13.13;;;9.13;;
6638;SDS011;3355;52.882;8.430;2023-03-01T07:45:52;13.13;;;8.17;;
6638;SDS011;3355;52.882;8.430;2023-03-01T07:48:19;11.33;;;6.90;;
6638;SDS011;3355;52.882;8.430;2023-03-01T07:50:46;14.40;;;7.67;;
6638;SDS011;3355;52.882;8.430;2023-03-01T07:53:13;11.00;;;8.33;;
6638;SDS011;3355;52.882;8.430;2023-03-01T07:55:41;11.40;;;8.53;;
6638;SDS011;3355;52.882;8.430;2023-03-01T07:58:08;13.93;;;8.73;;
6638;SDS011;3355;52.882;8.430;2023-03-01T08:00:35;11.63;;;9.00;;
6638;SDS011;3355;52.882;8.430;2023-03-01T08:03:02;11.30;;;8.50;;
6638;SDS011;3355;52.882;8.430;2023-03-01T08:05:29;9.70;;;7.40;;
6638;SDS011;3355;52.882;8.430;2023-03-01T08:07:55;13.03;;;7.87;;
6638;SDS011;3355;52.882;8.430;2023-03-01T08:10:22;10.37;;;7.70;;
6638;SDS011;3355;52.882;8.430;2023-03-01T08:12:51;11.70;;;7.50;;
6638;SDS011;3355;52.882;8.430;2023-03-01T08:15:18;14.73;;;7.37;;
6638;SDS011;3355;52.882;8.430;2023-03-01T08:17:46;9.50;;;7.17;;
6638;SDS011;3355;52.882;8.430;2023-03-01T08:20:15;14.67;;;8.27;;
6638;SDS011;3355;52.882;8.430;2023-03-01T08:22:42;11.20;;;7.80;;
6638;SDS011;3355;52.882;8.430;2023-03-01T08:25:08;15.70;;;9.30;;
6638;SDS011;3355;52.882;8.430;2023-03-01T08:27:35;14.27;;;8.17;;
6638;SDS011;3355;52.882;8.430;2023-03-01T08:30:04;13.73;;;8.63;;
6638;SDS011;3355;52.882;8.430;2023-03-01T08:32:34;14.40;;;8.70;;
6638;SDS011;3355;52.882;8.430;2023-03-01T08:35:02;11.60;;;7.67;;
6638;SDS011;3355;52.882;8.430;2023-03-01T08:37:29;10.30;;;7.17;;
6638;SDS011;3355;52.882;8.430;2023-03-01T08:39:58;11.03;;;7.87;;
6638;SDS011;3355;52.882;8.430;2023-03-01T08:42:26;9.53;;;6.30;;
6638;SDS011;3355;52.882;8.430;2023-03-01T08:44:53;7.70;;;4.77;;
6638;SDS011;3355;52.882;8.430;2023-03-01T08:47:21;6.67;;;3.50;;
6638;SDS011;3355;52.882;8.430;2023-03-01T08:49:49;4.93;;;3.33;;
6638;SDS011;3355;52.882;8.430;2023-03-01T08:52:15;4.17;;;2.70;;
6638;SDS011;3355;52.882;8.430;2023-03-01T08:54:42;4.60;;;3.47;;
6638;SDS011;3355;52.882;8.430;2023-03-01T08:57:09;3.60;;;2.20;;
6638;SDS011;3355;52.882;8.430;2023-03-01T08:59:35;4.97;;;2.77;;
6638;SDS011;3355;52.882;8.430;2023-03-01T09:02:03;4.87;;;3.40;;
6638;SDS011;3355;52.882;8.430;2023-03-01T09:04:31;3.60;;;2.53;;
6638;SDS011;3355;52.882;8.430;2023-03-01T09:06:58;3.63;;;2.60;;
6638;SDS011;3355;52.882;8.430;2023-03-01T09:54:06;3.20;;;2.00;;
6638;SDS011;3355;52.882;8.430;2023-03-01T09:56:36;3.63;;;2.50;;
6638;SDS011;3355;52.882;8.430;2023-03-01T09:59:11;3.33;;;1.93;;
6638;SDS011;3355;52.882;8.430;2023-03-01T10:01:44;3.50;;;2.53;;
6638;SDS011;3355;52.882;8.430;2023-03-01T10:04:24;3.23;;;2.23;;
6638;SDS011;3355;52.882;8.430;2023-03-01T10:06:58;4.30;;;2.33;;
6638;SDS011;3355;52.882;8.430;2023-03-01T10:09:33;7.20;;;2.30;;
6638;SDS011;3355;52.882;8.430;2023-03-01T10:12:07;3.30;;;2.10;;
6638;SDS011;3355;52.882;8.430;2023-03-01T10:14:36;4.80;;;2.43;;
6638;SDS011;3355;52.882;8.430;2023-03-01T10:17:08;4.30;;;2.90;;
6638;SDS011;3355;52.882;8.430;2023-03-01T10:19:39;5.83;;;3.23;;
6638;SDS011;3355;52.882;8.430;2023-03-01T10:22:11;7.30;;;4.20;;
6638;SDS011;3355;52.882;8.430;2023-03-01T10:24:41;5.57;;;4.20;;
6638;SDS011;3355;52.882;8.430;2023-03-01T10:27:09;6.73;;;4.87;;
6638;SDS011;3355;52.882;8.430;2023-03-01T10:29:39;8.03;;;3.90;;
6638;SDS011;3355;52.882;8.430;2023-03-01T10:32:10;7.40;;;4.10;;
6638;SDS011;3355;52.882;8.430;2023-03-01T10:34:37;6.10;;;3.80;;
6638;SDS011;3355;52.882;8.430;2023-03-01T10:37:11;7.53;;;4.23;;
6638;SDS011;3355;52.882;8.430;2023-03-01T10:42:33;5.57;;;3.80;;
6638;SDS011;3355;52.882;8.430;2023-03-01T10:45:14;6.87;;;3.07;;
6638;SDS011;3355;52.882;8.430;2023-03-01T10:47:43;5.87;;;3.43;;
6638;SDS011;3355;52.882;8.430;2023-03-01T10:50:17;4.17;;;3.03;;
6638;SDS011;3355;52.882;8.430;2023-03-01T10:52:55;5.70;;;4.23;;
6638;SDS011;3355;52.882;8.430;2023-03-01T10:55:24;5.47;;;3.87;;
6638;SDS011;3355;52.882;8.430;2023-03-01T10:58:05;5.40;;;3.93;;
6638;SDS011;3355;52.882;8.430;2023-03-01T11:00:33;5.70;;;4.20;;
6638;SDS011;3355;52.882;8.430;2023-03-01T11:03:19;5.63;;;4.57;;
6638;SDS011;3355;52.882;8.430;2023-03-01T11:05:52;6.77;;;5.00;;
6638;SDS011;3355;52.882;8.430;2023-03-01T11:08:37;7.70;;;4.40;;
6638;SDS011;3355;52.882;8.430;2023-03-01T11:11:14;6.10;;;4.23;;
6638;SDS011;3355;52.882;8.430;2023-03-01T11:13:49;6.57;;;4.23;;
6638;SDS011;3355;52.882;8.430;2023-03-01T11:16:22;5.70;;;4.20;;
6638;SDS011;3355;52.882;8.430;2023-03-01T11:21:55;7.20;;;5.33;;
6638;SDS011;3355;52.882;8.430;2023-03-01T11:24:26;8.20;;;5.47;;
6638;SDS011;3355;52.882;8.430;2023-03-01T11:26:56;6.10;;;5.03;;
6638;SDS011;3355;52.882;8.430;2023-03-01T11:29:32;7.20;;;4.97;;
6638;SDS011;3355;52.882;8.430;2023-03-01T11:32:06;8.47;;;4.70;;
6638;SDS011;3355;52.882;8.430;2023-03-01T11:34:40;7.80;;;5.00;;
6638;SDS011;3355;52.882;8.430;2023-03-01T11:37:13;8.87;;;4.77;;
6638;SDS011;3355;52.882;8.430;2023-03-01T11:39:49;7.40;;;5.77;;
6638;SDS011;3355;52.882;8.430;2023-03-01T11:42:20;9.30;;;4.47;;
6638;SDS011;3355;52.882;8.430;2023-03-01T11:44:58;7.07;;;4.93;;
6638;SDS011;3355;52.882;8.430;2023-03-01T11:47:29;7.50;;;5.20;;
6638;SDS011;3355;52.882;8.430;2023-03-01T11:50:13;8.40;;;5.70;;
6638;SDS011;3355;52.882;8.430;2023-03-01T11:52:46;13.63;;;5.43;;
6638;SDS011;3355;52.882;8.430;2023-03-01T11:55:24;8.90;;;5.40;;
6638;SDS011;3355;52.882;8.430;2023-03-01T11:58:08;10.03;;;5.90;;
6638;SDS011;3355;52.882;8.430;2023-03-01T12:00:49;6.63;;;5.33;;
6638;SDS011;3355;52.882;8.430;2023-03-01T12:03:31;10.20;;;6.10;;
6638;SDS011;3355;52.882;8.430;2023-03-01T12:09:03;7.70;;;5.00;;
6638;SDS011;3355;52.882;8.430;2023-03-01T12:14:45;8.17;;;5.57;;
6638;SDS011;3355;52.882;8.430;2023-03-01T12:17:24;8.00;;;5.60;;
6638;SDS011;3355;52.882;8.430;2023-03-01T12:20:12;10.03;;;6.90;;
6638;SDS011;3355;52.882;8.430;2023-03-01T12:22:48;7.63;;;5.10;;
6638;SDS011;3355;52.882;8.430;2023-03-01T12:25:24;12.07;;;6.83;;
6638;SDS011;3355;52.882;8.430;2023-03-01T12:28:04;8.63;;;6.23;;
6638;SDS011;3355;52.882;8.430;2023-03-01T12:30:54;9.17;;;6.83;;
6638;SDS011;3355;52.882;8.430;2023-03-01T12:33:35;8.40;;;6.20;;
6638;SDS011;3355;52.882;8.430;2023-03-01T12:39:18;9.50;;;6.93;;
6638;SDS011;3355;52.882;8.430;2023-03-01T12:41:54;9.67;;;6.40;;
6638;SDS011;3355;52.882;8.430;2023-03-01T12:44:31;10.90;;;6.70;;
6638;SDS011;3355;52.882;8.430;2023-03-01T12:49:57;10.10;;;7.67;;
6638;SDS011;3355;52.882;8.430;2023-03-01T12:52:33;9.40;;;6.90;;
6638;SDS011;3355;52.882;8.430;2023-03-01T12:55:02;9.40;;;6.97;;
6638;SDS011;3355;52.882;8.430;2023-03-01T12:57:34;9.20;;;6.03;;
6638;SDS011;3355;52.882;8.430;2023-03-01T13:00:11;7.53;;;5.83;;
6638;SDS011;3355;52.882;8.430;2023-03-01T13:02:52;6.50;;;5.60;;
6638;SDS011;3355;52.882;8.430;2023-03-01T13:05:29;8.33;;;6.87;;
6638;SDS011;3355;52.882;8.430;2023-03-01T13:08:04;8.20;;;6.67;;
6638;SDS011;3355;52.882;8.430;2023-03-01T13:10:35;8.17;;;6.00;;
6638;SDS011;3355;52.882;8.430;2023-03-01T13:13:14;7.90;;;5.80;;
6638;SDS011;3355;52.882;8.430;2023-03-01T13:15:45;8.90;;;6.63;;
6638;SDS011;3355;52.882;8.430;2023-03-01T13:18:29;7.30;;;5.90;;
6638;SDS011;3355;52.882;8.430;2023-03-01T13:20:58;7.73;;;5.30;;
6638;SDS011;3355;52.882;8.430;2023-03-01T13:23:27;6.90;;;5.83;;
6638;SDS011;3355;52.882;8.430;2023-03-01T13:26:00;6.80;;;5.47;;
6638;SDS011;3355;52.882;8.430;2023-03-01T13:28:36;5.90;;;5.30;;
6638;SDS011;3355;52.882;8.430;2023-03-01T13:31:06;7.20;;;5.33;;
6638;SDS011;3355;52.882;8.430;2023-03-01T13:33:39;8.70;;;5.70;;
6638;SDS011;3355;52.882;8.430;2023-03-01T13:36:08;5.57;;;4.90;;
6638;SDS011;3355;52.882;8.430;2023-03-01T13:38:41;7.37;;;4.90;;
6638;SDS011;3355;52.882;8.430;2023-03-01T13:41:12;6.07;;;4.40;;
6638;SDS011;3355;52.882;8.430;2023-03-01T13:43:40;7.30;;;5.57;;
6638;SDS011;3355;52.882;8.430;2023-03-01T13:46:08;6.10;;;5.03;;
6638;SDS011;3355;52.882;8.430;2023-03-01T13:48:36;6.87;;;5.83;;
6638;SDS011;3355;52.882;8.430;2023-03-01T13:51:05;6.40;;;5.07;;
6638;SDS011;3355;52.882;8.430;2023-03-01T13:53:35;7.17;;;4.80;;
6638;SDS011;3355;52.882;8.430;2023-03-01T13:56:06;6.80;;;5.37;;
6638;SDS011;3355;52.882;8.430;2023-03-01T13:58:43;8.13;;;5.70;;
6638;SDS011;3355;52.882;8.430;2023-03-01T14:01:18;7.57;;;4.97;;
6638;SDS011;3355;52.882;8.430;2023-03-01T14:03:49;6.90;;;5.77;;
6638;SDS011;3355;52.882;8.430;2023-03-01T14:06:19;6.13;;;4.77;;
6638;SDS011;3355;52.882;8.430;2023-03-01T14:08:48;7.00;;;4.97;;
6638;SDS011;3355;52.882;8.430;2023-03-01T14:11:24;6.73;;;5.33;;
6638;SDS011;3355;52.882;8.430;2023-03-01T14:16:53;8.53;;;6.23;;
6638;SDS011;3355;52.882;8.430;2023-03-01T14:19:23;8.40;;;5.63;;
6638;SDS011;3355;52.882;8.430;2023-03-01T14:21:59;9.77;;;6.40;;
6638;SDS011;3355;52.882;8.430;2023-03-01T14:24:29;9.17;;;7.10;;
6638;SDS011;3355;52.882;8.430;2023-03-01T14:26:57;8.47;;;6.03;;
6638;SDS011;3355;52.882;8.430;2023-03-01T14:29:25;6.87;;;5.87;;
6638;SDS011;3355;52.882;8.430;2023-03-01T14:31:53;7.70;;;6.20;;
6638;SDS011;3355;52.882;8.430;2023-03-01T14:34:20;6.33;;;4.90;;
6638;SDS011;3355;52.882;8.430;2023-03-01T14:36:47;8.07;;;6.57;;
6638;SDS011;3355;52.882;8.430;2023-03-01T14:39:19;8.53;;;5.97;;
6638;SDS011;3355;52.882;8.430;2023-03-01T14:41:48;12.23;;;6.63;;
6638;SDS011;3355;52.882;8.430;2023-03-01T14:44:16;7.27;;;5.23;;
6638;SDS011;3355;52.882;8.430;2023-03-01T14:46:51;6.43;;;5.50;;
6638;SDS011;3355;52.882;8.430;2023-03-01T14:49:19;7.60;;;5.90;;
6638;SDS011;3355;52.882;8.430;2023-03-01T14:51:50;6.93;;;6.00;;
6638;SDS011;3355;52.882;8.430;2023-03-01T14:54:27;8.70;;;6.17;;
6638;SDS011;3355;52.882;8.430;2023-03-01T14:57:01;6.43;;;5.43;;
6638;SDS011;3355;52.882;8.430;2023-03-01T14:59:28;8.43;;;5.60;;
6638;SDS011;3355;52.882;8.430;2023-03-01T15:02:02;9.20;;;5.70;;
6638;SDS011;3355;52.882;8.430;2023-03-01T15:04:29;7.40;;;6.07;;
6638;SDS011;3355;52.882;8.430;2023-03-01T15:06:56;6.63;;;5.47;;
6638;SDS011;3355;52.882;8.430;2023-03-01T15:09:31;6.50;;;5.63;;
6638;SDS011;3355;52.882;8.430;2023-03-01T15:11:59;7.30;;;6.10;;
6638;SDS011;3355;52.882;8.430;2023-03-01T15:14:39;7.83;;;5.27;;
6638;SDS011;3355;52.882;8.430;2023-03-01T15:17:23;8.17;;;5.07;;
6638;SDS011;3355;52.882;8.430;2023-03-01T15:19:53;7.27;;;6.23;;
6638;SDS011;3355;52.882;8.430;2023-03-01T15:22:20;7.70;;;5.87;;
6638;SDS011;3355;52.882;8.430;2023-03-01T15:24:54;7.77;;;5.93;;
6638;SDS011;3355;52.882;8.430;2023-03-01T15:27:21;7.43;;;5.30;;
6638;SDS011;3355;52.882;8.430;2023-03-01T15:29:50;10.17;;;6.40;;
6638;SDS011;3355;52.882;8.430;2023-03-01T15:35:37;8.27;;;6.70;;
6638;SDS011;3355;52.882;8.430;2023-03-01T15:40:59;7.80;;;5.80;;
6638;SDS011;3355;52.882;8.430;2023-03-01T15:43:36;9.40;;;6.00;;
6638;SDS011;3355;52.882;8.430;2023-03-01T15:46:19;9.20;;;7.10;;
6638;SDS011;3355;52.882;8.430;2023-03-01T15:49:02;8.07;;;6.30;;
6638;SDS011;3355;52.882;8.430;2023-03-01T15:51:32;8.83;;;6.10;;
6638;SDS011;3355;52.882;8.430;2023-03-01T15:54:07;7.73;;;5.67;;
6638;SDS011;3355;52.882;8.430;2023-03-01T15:56:41;11.50;;;5.60;;
6638;SDS011;3355;52.882;8.430;2023-03-01T15:59:09;7.40;;;5.07;;
6638;SDS011;3355;52.882;8.430;2023-03-01T16:01:39;8.90;;;5.17;;
6638;SDS011;3355;52.882;8.430;2023-03-01T16:04:05;8.83;;;5.97;;
6638;SDS011;3355;52.882;8.430;2023-03-01T16:06:33;8.50;;;5.30;;
6638;SDS011;3355;52.882;8.430;2023-03-01T16:09:02;7.20;;;5.13;;
6638;SDS011;3355;52.882;8.430;2023-03-01T16:11:28;7.37;;;5.70;;
6638;SDS011;3355;52.882;8.430;2023-03-01T16:13:58;7.53;;;5.33;;
6638;SDS011;3355;52.882;8.430;2023-03-01T16:16:26;7.30;;;5.20;;
6638;SDS011;3355;52.882;8.430;2023-03-01T16:18:53;8.37;;;5.63;;
6638;SDS011;3355;52.882;8.430;2023-03-01T16:21:21;8.73;;;7.00;;
6638;SDS011;3355;52.882;8.430;2023-03-01T16:23:49;8.30;;;6.90;;
6638;SDS011;3355;52.882;8.430;2023-03-01T16:26:26;7.43;;;5.90;;
6638;SDS011;3355;52.882;8.430;2023-03-01T16:28:54;9.17;;;6.13;;
6638;SDS011;3355;52.882;8.430;2023-03-01T16:31:22;9.53;;;6.13;;
6638;SDS011;3355;52.882;8.430;2023-03-01T16:33:52;8.53;;;6.30;;
6638;SDS011;3355;52.882;8.430;2023-03-01T16:36:20;7.43;;;6.60;;